sensor_id;sensor_type;location;lat;lon;timestamp;pressure;altitude;pressure_sealevel;temperature;humidity
46464;BME280;32161;48.148;-1.554;2024-01-10T00:01:27;101769.75;;;0.80;100.00
46464;BME280;32161;48.148;-1.554;2024-01-10T00:03:55;101762.56;;;0.80;100.00
46464;BME280;32161;48.148;-1.554;2024-01-10T00:06:23;101759.63;;;0.73;100.00
46464;BME280;32161;48.148;-1.554;2024-01-10T00:08:50;101768.34;;;0.76;100.00
46464;BME280;32161;48.148;-1.554;2024-01-10T00:11:20;101763.56;;;0.79;100.00
46464;BME280;32161;48.148;-1.554;2024-01-10T00:13:48;101764.84;;;0.75;100.00
46464;BME280;32161;48.148;-1.554;2024-01-10T00:16:15;101760.47;;;0.74;100.00
46464;BME280;32161;48.148;-1.554;2024-01-10T00:18:43;101757.53;;;0.77;100.00
46464;BME280;32161;48.148;-1.554;2024-01-10T00:21:11;101754.13;;;0.75;100.00
46464;BME280;32161;48.148;-1.554;2024-01-10T00:23:38;101756.53;;;0.78;100.00
46464;BME280;32161;48.148;-1.554;2024-01-10T00:26:06;101755.53;;;0.79;100.00
46464;BME280;32161;48.148;-1.554;2024-01-10T00:28:35;101757.66;;;0.85;100.00
46464;BME280;32161;48.148;-1.554;2024-01-10T00:31:03;101746.38;;;0.82;100.00
46464;BME280;32161;48.148;-1.554;2024-01-10T00:33:30;101746.66;;;0.79;100.00
46464;BME280;32161;48.148;-1.554;2024-01-10T00:35:58;101753.84;;;0.78;100.00
46464;BME280;32161;48.148;-1.554;2024-01-10T00:38:26;101753.00;;;0.78;100.00
46464;BME280;32161;48.148;-1.554;2024-01-10T00:40:53;101754.13;;;0.75;100.00
46464;BME280;32161;48.148;-1.554;2024-01-10T00:43:22;101762.00;;;0.77;100.00
46464;BME280;32161;48.148;-1.554;2024-01-10T00:45:51;101755.81;;;0.86;100.00
46464;BME280;32161;48.148;-1.554;2024-01-10T00:48:18;101750.59;;;0.84;100.00
46464;BME280;32161;48.148;-1.554;2024-01-10T00:50:46;101751.47;;;0.85;100.00
46464;BME280;32161;48.148;-1.554;2024-01-10T00:53:14;101742.44;;;0.86;100.00
46464;BME280;32161;48.148;-1.554;2024-01-10T00:55:41;101741.03;;;0.82;100.00
46464;BME280;32161;48.148;-1.554;2024-01-10T00:58:09;101745.53;;;1.01;100.00
46464;BME280;32161;48.148;-1.554;2024-01-10T01:00:37;101740.16;;;0.91;100.00
46464;BME280;32161;48.148;-1.554;2024-01-10T01:03:07;101739.47;;;0.89;100.00
46464;BME280;32161;48.148;-1.554;2024-01-10T01:05:34;101751.47;;;0.75;100.00
46464;BME280;32161;48.148;-1.554;2024-01-10T01:08:02;101740.03;;;0.73;100.00
46464;BME280;32161;48.148;-1.554;2024-01-10T01:10:30;101732.31;;;0.70;100.00
46464;BME280;32161;48.148;-1.554;2024-01-10T01:12:57;101738.50;;;0.90;100.00
46464;BME280;32161;48.148;-1.554;2024-01-10T01:15:25;101742.31;;;0.78;100.00
46464;BME280;32161;48.148;-1.554;2024-01-10T01:17:52;101735.53;;;0.64;100.00
46464;BME280;32161;48.148;-1.554;2024-01-10T01:20:21;101739.06;;;0.74;100.00
46464;BME280;32161;48.148;-1.554;2024-01-10T01:22:49;101742.44;;;0.66;100.00
46464;BME280;32161;48.148;-1.554;2024-01-10T01:25:16;101745.69;;;0.60;100.00
46464;BME280;32161;48.148;-1.554;2024-01-10T01:27:44;101747.78;;;0.57;100.00
46464;BME280;32161;48.148;-1.554;2024-01-10T01:30:12;101740.06;;;0.63;100.00
46464;BME280;32161;48.148;-1.554;2024-01-10T01:32:40;101743.84;;;0.51;100.00
46464;BME280;32161;48.148;-1.554;2024-01-10T01:35:08;101739.63;;;0.58;100.00
46464;BME280;32161;48.148;-1.554;2024-01-10T01:37:37;101740.47;;;0.59;100.00
46464;BME280;32161;48.148;-1.554;2024-01-10T01:40:06;101744.00;;;0.59;100.00
46464;BME280;32161;48.148;-1.554;2024-01-10T01:42:34;101740.59;;;0.57;100.00
46464;BME280;32161;48.148;-1.554;2024-01-10T01:45:02;101744.00;;;0.59;100.00
46464;BME280;32161;48.148;-1.554;2024-01-10T01:47:31;101752.59;;;0.63;100.00
46464;BME280;32161;48.148;-1.554;2024-01-10T01:49:58;101754.84;;;0.67;100.00
46464;BME280;32161;48.148;-1.554;2024-01-10T01:52:26;101756.09;;;0.63;100.00
46464;BME280;32161;48.148;-1.554;2024-01-10T01:54:55;101760.91;;;0.69;100.00
46464;BME280;32161;48.148;-1.554;2024-01-10T01:57:22;101759.78;;;0.62;100.00
46464;BME280;32161;48.148;-1.554;2024-01-10T01:59:51;101754.56;;;0.70;100.00
46464;BME280;32161;48.148;-1.554;2024-01-10T02:02:18;101753.16;;;0.66;100.00
46464;BME280;32161;48.148;-1.554;2024-01-10T02:04:47;101760.03;;;0.59;100.00
46464;BME280;32161;48.148;-1.554;2024-01-10T02:07:15;101763.84;;;0.66;100.00
46464;BME280;32161;48.148;-1.554;2024-01-10T02:09:42;101770.19;;;0.75;100.00
46464;BME280;32161;48.148;-1.554;2024-01-10T02:12:11;101763.69;;;0.68;100.00
46464;BME280;32161;48.148;-1.554;2024-01-10T02:14:39;101756.81;;;0.56;100.00
46464;BME280;32161;48.148;-1.554;2024-01-10T02:17:07;101763.25;;;0.53;100.00
46464;BME280;32161;48.148;-1.554;2024-01-10T02:19:34;101762.16;;;0.56;100.00
46464;BME280;32161;48.148;-1.554;2024-01-10T02:22:02;101766.50;;;0.57;100.00
46464;BME280;32161;48.148;-1.554;2024-01-10T02:24:30;101766.78;;;0.54;100.00
46464;BME280;32161;48.148;-1.554;2024-01-10T02:26:58;101764.81;;;0.56;100.00
46464;BME280;32161;48.148;-1.554;2024-01-10T02:29:26;101768.22;;;0.67;100.00
46464;BME280;32161;48.148;-1.554;2024-01-10T02:31:54;101761.59;;;0.62;100.00
46464;BME280;32161;48.148;-1.554;2024-01-10T02:34:21;101764.41;;;0.60;100.00
46464;BME280;32161;48.148;-1.554;2024-01-10T02:36:49;101765.41;;;0.59;100.00
46464;BME280;32161;48.148;-1.554;2024-01-10T02:39:17;101763.00;;;0.56;100.00
46464;BME280;32161;48.148;-1.554;2024-01-10T02:41:44;101765.53;;;0.48;100.00
46464;BME280;32161;48.148;-1.554;2024-01-10T02:44:13;101762.72;;;0.59;100.00
46464;BME280;32161;48.148;-1.554;2024-01-10T02:46:42;101763.56;;;0.60;100.00
46464;BME280;32161;48.148;-1.554;2024-01-10T02:49:10;101752.56;;;0.53;100.00
46464;BME280;32161;48.148;-1.554;2024-01-10T02:51:37;101742.72;;;0.44;100.00
46464;BME280;32161;48.148;-1.554;2024-01-10T02:54:05;101749.06;;;0.43;100.00
46464;BME280;32161;48.148;-1.554;2024-01-10T02:56:32;101743.00;;;0.41;100.00
46464;BME280;32161;48.148;-1.554;2024-01-10T02:59:00;101751.72;;;0.53;100.00
46464;BME280;32161;48.148;-1.554;2024-01-10T03:01:29;101752.72;;;0.52;100.00
46464;BME280;32161;48.148;-1.554;2024-01-10T03:03:56;101748.75;;;0.46;100.00
46464;BME280;32161;48.148;-1.554;2024-01-10T03:06:24;101750.03;;;0.42;100.00
46464;BME280;32161;48.148;-1.554;2024-01-10T03:08:52;101748.06;;;0.44;100.00
46464;BME280;32161;48.148;-1.554;2024-01-10T03:11:19;101738.94;;;0.46;100.00
46464;BME280;32161;48.148;-1.554;2024-01-10T03:13:47;101740.03;;;0.44;100.00
46464;BME280;32161;48.148;-1.554;2024-01-10T03:16:15;101750.75;;;0.44;100.00
46464;BME280;32161;48.148;-1.554;2024-01-10T03:18:44;101752.56;;;0.34;100.00
46464;BME280;32161;48.148;-1.554;2024-01-10T03:21:12;101755.22;;;0.34;100.00
46464;BME280;32161;48.148;-1.554;2024-01-10T03:23:40;101755.94;;;0.36;100.00
46464;BME280;32161;48.148;-1.554;2024-01-10T03:26:09;101753.53;;;0.33;100.00
46464;BME280;32161;48.148;-1.554;2024-01-10T03:28:36;101750.88;;;0.52;100.00
46464;BME280;32161;48.148;-1.554;2024-01-10T03:31:04;101755.69;;;0.39;100.00
46464;BME280;32161;48.148;-1.554;2024-01-10T03:33:32;101755.09;;;0.45;100.00
46464;BME280;32161;48.148;-1.554;2024-01-10T03:36:01;101748.34;;;0.41;100.00
46464;BME280;32161;48.148;-1.554;2024-01-10T03:38:29;101761.84;;;0.30;100.00
46464;BME280;32161;48.148;-1.554;2024-01-10T03:40:55;101754.97;;;0.27;100.00
46464;BME280;32161;48.148;-1.554;2024-01-10T03:43:23;101756.38;;;0.41;100.00
46464;BME280;32161;48.148;-1.554;2024-01-10T03:45:51;101758.19;;;0.40;100.00
46464;BME280;32161;48.148;-1.554;2024-01-10T03:48:19;101760.31;;;0.37;100.00
46464;BME280;32161;48.148;-1.554;2024-01-10T03:50:47;101750.88;;;0.52;100.00
46464;BME280;32161;48.148;-1.554;2024-01-10T03:53:16;101755.69;;;0.39;100.00
46464;BME280;32161;48.148;-1.554;2024-01-10T03:55:43;101753.81;;;0.30;100.00
46464;BME280;32161;48.148;-1.554;2024-01-10T03:58:11;101754.53;;;0.32;100.00
46464;BME280;32161;48.148;-1.554;2024-01-10T04:00:38;101755.91;;;0.26;100.00
46464;BME280;32161;48.148;-1.554;2024-01-10T04:03:06;101752.56;;;0.34;100.00
46464;BME280;32161;48.148;-1.554;2024-01-10T04:05:34;101758.22;;;0.50;100.00
46464;BME280;32161;48.148;-1.554;2024-01-10T04:08:01;101753.13;;;0.37;100.00
46464;BME280;32161;48.148;-1.554;2024-01-10T04:10:31;101756.22;;;0.33;100.00
46464;BME280;32161;48.148;-1.554;2024-01-10T04:12:58;101744.97;;;0.39;100.00
46464;BME280;32161;48.148;-1.554;2024-01-10T04:15:26;101746.94;;;0.27;100.00
46464;BME280;32161;48.148;-1.554;2024-01-10T04:17:52;101744.81;;;0.21;100.00
46464;BME280;32161;48.148;-1.554;2024-01-10T04:20:20;101738.75;;;0.29;100.00
46464;BME280;32161;48.148;-1.554;2024-01-10T04:22:48;101741.03;;;0.23;100.00
46464;BME280;32161;48.148;-1.554;2024-01-10T04:25:15;101744.53;;;0.34;100.00
46464;BME280;32161;48.148;-1.554;2024-01-10T04:27:44;101740.03;;;0.24;100.00
46464;BME280;32161;48.148;-1.554;2024-01-10T04:30:13;101739.59;;;0.29;100.00
46464;BME280;32161;48.148;-1.554;2024-01-10T04:32:40;101745.78;;;0.30;100.00
46464;BME280;32161;48.148;-1.554;2024-01-10T04:35:08;101748.31;;;0.21;100.00
46464;BME280;32161;48.148;-1.554;2024-01-10T04:37:36;101739.88;;;0.16;100.00
46464;BME280;32161;48.148;-1.554;2024-01-10T04:40:04;101746.38;;;0.23;100.00
46464;BME280;32161;48.148;-1.554;2024-01-10T04:42:32;101753.41;;;0.24;100.00
46464;BME280;32161;48.148;-1.554;2024-01-10T04:45:01;101746.94;;;0.27;100.00
46464;BME280;32161;48.148;-1.554;2024-01-10T04:47:29;101747.75;;;0.18;100.00
46464;BME280;32161;48.148;-1.554;2024-01-10T04:49:56;101755.50;;;0.31;100.00
46464;BME280;32161;48.148;-1.554;2024-01-10T04:52:24;101753.50;;;0.23;100.00
46464;BME280;32161;48.148;-1.554;2024-01-10T04:54:51;101743.81;;;0.12;100.00
46464;BME280;32161;48.148;-1.554;2024-01-10T04:57:19;101754.50;;;0.12;100.00
46464;BME280;32161;48.148;-1.554;2024-01-10T04:59:46;101750.84;;;0.13;100.00
46464;BME280;32161;48.148;-1.554;2024-01-10T05:02:16;101742.41;;;0.18;100.00
46464;BME280;32161;48.148;-1.554;2024-01-10T05:04:43;101748.63;;;0.28;100.00
46464;BME280;32161;48.148;-1.554;2024-01-10T05:07:11;101744.94;;;0.29;100.00
46464;BME280;32161;48.148;-1.554;2024-01-10T05:09:39;101741.97;;;0.22;100.00
46464;BME280;32161;48.148;-1.554;2024-01-10T05:12:07;101733.56;;;0.37;100.00
46464;BME280;32161;48.148;-1.554;2024-01-10T05:14:34;101733.00;;;0.33;100.00
46464;BME280;32161;48.148;-1.554;2024-01-10T05:17:02;101737.22;;;0.36;100.00
46464;BME280;32161;48.148;-1.554;2024-01-10T05:19:31;101743.13;;;0.20;100.00
46464;BME280;32161;48.148;-1.554;2024-01-10T05:21:58;101741.97;;;0.22;100.00
46464;BME280;32161;48.148;-1.554;2024-01-10T05:24:26;101738.63;;;0.20;100.00
46464;BME280;32161;48.148;-1.554;2024-01-10T05:26:53;101732.13;;;0.13;100.00
46464;BME280;32161;48.148;-1.554;2024-01-10T05:29:21;101732.81;;;0.15;100.00
46464;BME280;32161;48.148;-1.554;2024-01-10T05:31:50;101731.56;;;0.10;100.00
46464;BME280;32161;48.148;-1.554;2024-01-10T05:34:17;101735.06;;;0.10;100.00
46464;BME280;32161;48.148;-1.554;2024-01-10T05:36:46;101732.28;;;0.12;100.00
46464;BME280;32161;48.148;-1.554;2024-01-10T05:39:15;101731.13;;;0.14;100.00
46464;BME280;32161;48.148;-1.554;2024-01-10T05:41:44;101731.28;;;0.13;100.00
46464;BME280;32161;48.148;-1.554;2024-01-10T05:44:12;101731.13;;;0.14;100.00
46464;BME280;32161;48.148;-1.554;2024-01-10T05:46:41;101737.88;;;0.18;100.00
46464;BME280;32161;48.148;-1.554;2024-01-10T05:49:09;101738.47;;;0.22;100.00
46464;BME280;32161;48.148;-1.554;2024-01-10T05:51:36;101737.78;;;0.20;100.00
46464;BME280;32161;48.148;-1.554;2024-01-10T05:54:06;101734.41;;;0.28;100.00
46464;BME280;32161;48.148;-1.554;2024-01-10T05:56:34;101733.84;;;0.24;100.00
46464;BME280;32161;48.148;-1.554;2024-01-10T05:59:01;101733.38;;;0.19;100.00
46464;BME280;32161;48.148;-1.554;2024-01-10T06:01:29;101739.31;;;0.22;100.00
46464;BME280;32161;48.148;-1.554;2024-01-10T06:03:56;101727.78;;;0.32;100.00
46464;BME280;32161;48.148;-1.554;2024-01-10T06:06:24;101728.06;;;0.29;100.00
46464;BME280;32161;48.148;-1.554;2024-01-10T06:08:51;101727.22;;;0.28;100.00
46464;BME280;32161;48.148;-1.554;2024-01-10T06:11:20;101722.69;;;0.19;100.00
46464;BME280;32161;48.148;-1.554;2024-01-10T06:13:48;101723.56;;;0.19;100.00
46464;BME280;32161;48.148;-1.554;2024-01-10T06:16:15;101731.28;;;0.22;100.00
46464;BME280;32161;48.148;-1.554;2024-01-10T06:18:43;101733.69;;;0.26;100.00
46464;BME280;32161;48.148;-1.554;2024-01-10T06:21:11;101728.91;;;0.19;100.00
46464;BME280;32161;48.148;-1.554;2024-01-10T06:23:39;101729.59;;;0.21;100.00
46464;BME280;32161;48.148;-1.554;2024-01-10T06:26:06;101730.59;;;0.20;100.00
46464;BME280;32161;48.148;-1.554;2024-01-10T06:28:35;101732.53;;;0.18;100.00
46464;BME280;32161;48.148;-1.554;2024-01-10T06:31:03;101727.47;;;0.15;100.00
46464;BME280;32161;48.148;-1.554;2024-01-10T06:33:30;101734.78;;;0.13;100.00
46464;BME280;32161;48.148;-1.554;2024-01-10T06:35:58;101734.53;;;0.16;100.00
46464;BME280;32161;48.148;-1.554;2024-01-10T06:38:26;101734.69;;;0.24;100.00
46464;BME280;32161;48.148;-1.554;2024-01-10T06:40:53;101726.25;;;0.19;100.00
46464;BME280;32161;48.148;-1.554;2024-01-10T06:43:21;101731.59;;;0.19;100.00
46464;BME280;32161;48.148;-1.554;2024-01-10T06:45:51;101735.91;;;0.11;100.00
46464;BME280;32161;48.148;-1.554;2024-01-10T06:48:19;101734.22;;;0.10;100.00
46464;BME280;32161;48.148;-1.554;2024-01-10T06:50:46;101734.06;;;0.11;100.00
46464;BME280;32161;48.148;-1.554;2024-01-10T06:53:14;101739.31;;;0.22;100.00
46464;BME280;32161;48.148;-1.554;2024-01-10T06:55:41;101736.06;;;0.19;100.00
46464;BME280;32161;48.148;-1.554;2024-01-10T06:58:09;101730.59;;;0.20;100.00
46464;BME280;32161;48.148;-1.554;2024-01-10T07:00:37;101725.66;;;0.16;100.00
46464;BME280;32161;48.148;-1.554;2024-01-10T07:03:06;101734.06;;;0.11;100.00
46464;BME280;32161;48.148;-1.554;2024-01-10T07:05:34;101738.88;;;0.17;100.00
46464;BME280;32161;48.148;-1.554;2024-01-10T07:08:03;101734.41;;;0.28;100.00
46464;BME280;32161;48.148;-1.554;2024-01-10T07:10:31;101737.91;;;0.28;100.00
46464;BME280;32161;48.148;-1.554;2024-01-10T07:12:58;101727.06;;;0.30;100.00
46464;BME280;32161;48.148;-1.554;2024-01-10T07:15:26;101734.78;;;0.13;100.00
46464;BME280;32161;48.148;-1.554;2024-01-10T07:17:53;101734.06;;;0.11;100.00
46464;BME280;32161;48.148;-1.554;2024-01-10T07:20:22;101740.16;;;0.23;100.00
46464;BME280;32161;48.148;-1.554;2024-01-10T07:22:50;101729.72;;;0.10;100.00
46464;BME280;32161;48.148;-1.554;2024-01-10T07:25:18;101738.31;;;0.14;100.00
46464;BME280;32161;48.148;-1.554;2024-01-10T07:27:50;101741.84;;;0.34;100.00
46464;BME280;32161;48.148;-1.554;2024-01-10T07:30:18;101739.34;;;0.32;100.00
46464;BME280;32161;48.148;-1.554;2024-01-10T07:32:46;101742.28;;;0.29;100.00
46464;BME280;32161;48.148;-1.554;2024-01-10T07:35:14;101740.44;;;0.20;100.00
46464;BME280;32161;48.148;-1.554;2024-01-10T07:37:43;101740.59;;;0.28;100.00
46464;BME280;32161;48.148;-1.554;2024-01-10T07:40:10;101737.63;;;0.21;100.00
46464;BME280;32161;48.148;-1.554;2024-01-10T07:42:39;101737.75;;;0.10;100.00
46464;BME280;32161;48.148;-1.554;2024-01-10T07:45:07;101740.56;;;0.09;100.00
46464;BME280;32161;48.148;-1.554;2024-01-10T07:47:36;101744.09;;;0.29;100.00
46464;BME280;32161;48.148;-1.554;2024-01-10T07:50:05;101742.13;;;0.31;100.00
46464;BME280;32161;48.148;-1.554;2024-01-10T07:52:33;101745.22;;;0.16;100.00
46464;BME280;32161;48.148;-1.554;2024-01-10T07:55:03;101741.13;;;0.12;100.00
46464;BME280;32161;48.148;-1.554;2024-01-10T07:57:33;101754.50;;;0.12;100.00
46464;BME280;32161;48.148;-1.554;2024-01-10T08:00:01;101751.53;;;0.15;100.00
46464;BME280;32161;48.148;-1.554;2024-01-10T08:02:30;101762.53;;;0.22;100.00
46464;BME280;32161;48.148;-1.554;2024-01-10T08:05:00;101742.28;;;0.68;100.00
46464;BME280;32161;48.148;-1.554;2024-01-10T08:07:31;101748.34;;;0.31;100.00
46464;BME280;32161;48.148;-1.554;2024-01-10T08:09:59;101749.84;;;0.14;100.00
46464;BME280;32161;48.148;-1.554;2024-01-10T08:12:28;101761.53;;;0.13;100.00
46464;BME280;32161;48.148;-1.554;2024-01-10T08:14:55;101759.28;;;0.18;100.00
46464;BME280;32161;48.148;-1.554;2024-01-10T08:17:23;101754.50;;;0.22;100.00
46464;BME280;32161;48.148;-1.554;2024-01-10T08:19:51;101753.66;;;0.12;100.00
46464;BME280;32161;48.148;-1.554;2024-01-10T08:22:19;101752.66;;;0.13;100.00
46464;BME280;32161;48.148;-1.554;2024-01-10T08:24:47;101762.78;;;0.09;100.00
46464;BME280;32161;48.148;-1.554;2024-01-10T08:27:15;101754.78;;;0.09;100.00
46464;BME280;32161;48.148;-1.554;2024-01-10T08:29:44;101766.19;;;0.21;100.00
46464;BME280;32161;48.148;-1.554;2024-01-10T08:32:12;101769.72;;;0.21;100.00
46464;BME280;32161;48.148;-1.554;2024-01-10T08:34:41;101766.88;;;0.13;100.00
46464;BME280;32161;48.148;-1.554;2024-01-10T08:37:11;101773.38;;;0.20;100.00
46464;BME280;32161;48.148;-1.554;2024-01-10T08:39:38;101772.66;;;0.18;100.00
46464;BME280;32161;48.148;-1.554;2024-01-10T08:42:06;101778.44;;;0.23;100.00
46464;BME280;32161;48.148;-1.554;2024-01-10T08:44:35;101775.06;;;0.21;100.00
46464;BME280;32161;48.148;-1.554;2024-01-10T08:47:04;101779.84;;;0.28;100.00
46464;BME280;32161;48.148;-1.554;2024-01-10T08:49:32;101776.72;;;0.22;100.00
46464;BME280;32161;48.148;-1.554;2024-01-10T08:51:59;101785.06;;;0.19;100.00
46464;BME280;32161;48.148;-1.554;2024-01-10T08:54:27;101781.69;;;0.27;100.00
46464;BME280;32161;48.148;-1.554;2024-01-10T08:56:55;101779.13;;;0.26;100.00
46464;BME280;32161;48.148;-1.554;2024-01-10T08:59:23;101774.22;;;0.31;100.00
46464;BME280;32161;48.148;-1.554;2024-01-10T09:01:51;101780.41;;;0.21;100.00
46464;BME280;32161;48.148;-1.554;2024-01-10T09:04:20;101784.78;;;0.42;100.00
46464;BME280;32161;48.148;-1.554;2024-01-10T09:06:48;101775.09;;;0.31;100.00
46464;BME280;32161;48.148;-1.554;2024-01-10T09:09:15;101781.97;;;0.34;100.00
46464;BME280;32161;48.148;-1.554;2024-01-10T09:11:46;101779.75;;;0.39;100.00
46464;BME280;32161;48.148;-1.554;2024-01-10T09:14:15;101778.47;;;0.43;100.00
46464;BME280;32161;48.148;-1.554;2024-01-10T09:16:42;101778.03;;;0.38;100.00
46464;BME280;32161;48.148;-1.554;2024-01-10T09:19:10;101779.44;;;0.32;100.00
46464;BME280;32161;48.148;-1.554;2024-01-10T09:21:39;101784.25;;;0.48;100.00
46464;BME280;32161;48.148;-1.554;2024-01-10T09:24:07;101783.38;;;0.38;100.00
46464;BME280;32161;48.148;-1.554;2024-01-10T09:26:37;101788.72;;;0.38;100.00
46464;BME280;32161;48.148;-1.554;2024-01-10T09:29:05;101797.31;;;0.32;100.00
46464;BME280;32161;48.148;-1.554;2024-01-10T09:31:32;101800.00;;;0.41;100.00
46464;BME280;32161;48.148;-1.554;2024-01-10T09:34:00;101800.72;;;0.43;100.00
46464;BME280;32161;48.148;-1.554;2024-01-10T09:36:28;101802.16;;;0.67;100.00
46464;BME280;32161;48.148;-1.554;2024-01-10T09:38:57;101805.66;;;0.48;100.00
46464;BME280;32161;48.148;-1.554;2024-01-10T09:41:26;101820.13;;;0.45;100.00
46464;BME280;32161;48.148;-1.554;2024-01-10T09:43:55;101813.94;;;0.45;100.00
46464;BME280;32161;48.148;-1.554;2024-01-10T09:46:23;101812.94;;;0.46;100.00
46464;BME280;32161;48.148;-1.554;2024-01-10T09:48:50;101812.56;;;0.60;100.00
46464;BME280;32161;48.148;-1.554;2024-01-10T09:51:18;101812.56;;;0.60;100.00
46464;BME280;32161;48.148;-1.554;2024-01-10T09:53:49;101812.00;;;0.66;100.00
46464;BME280;32161;48.148;-1.554;2024-01-10T09:56:20;101813.16;;;0.73;100.00
46464;BME280;32161;48.148;-1.554;2024-01-10T09:58:48;101825.50;;;0.55;100.00
46464;BME280;32161;48.148;-1.554;2024-01-10T10:01:17;101825.09;;;0.60;100.00
46464;BME280;32161;48.148;-1.554;2024-01-10T10:03:46;101828.59;;;0.51;100.00
46464;BME280;32161;48.148;-1.554;2024-01-10T10:06:16;101821.44;;;0.51;100.00
46464;BME280;32161;48.148;-1.554;2024-01-10T10:08:43;101824.09;;;0.51;100.00
46464;BME280;32161;48.148;-1.554;2024-01-10T10:11:12;101825.25;;;0.58;100.00
46464;BME280;32161;48.148;-1.554;2024-01-10T10:13:42;101828.88;;;0.57;100.00
46464;BME280;32161;48.148;-1.554;2024-01-10T10:16:09;101835.38;;;0.64;100.00
46464;BME280;32161;48.148;-1.554;2024-01-10T10:18:40;101828.06;;;0.66;100.00
46464;BME280;32161;48.148;-1.554;2024-01-10T10:21:10;101821.28;;;0.53;100.00
46464;BME280;32161;48.148;-1.554;2024-01-10T10:23:39;101833.13;;;0.50;100.00
46464;BME280;32161;48.148;-1.554;2024-01-10T10:26:12;101829.75;;;0.67;100.00
46464;BME280;32161;48.148;-1.554;2024-01-10T10:28:47;101829.19;;;0.64;100.00
46464;BME280;32161;48.148;-1.554;2024-01-10T10:31:16;101828.03;;;0.57;100.00
46464;BME280;32161;48.148;-1.554;2024-01-10T10:33:45;101824.53;;;0.56;100.00
46464;BME280;32161;48.148;-1.554;2024-01-10T10:36:14;101821.56;;;0.59;100.00
46464;BME280;32161;48.148;-1.554;2024-01-10T10:38:42;101824.81;;;0.72;100.00
46464;BME280;32161;48.148;-1.554;2024-01-10T10:41:09;101830.16;;;0.72;100.00
46464;BME280;32161;48.148;-1.554;2024-01-10T10:43:38;101828.34;;;0.73;100.00
46464;BME280;32161;48.148;-1.554;2024-01-10T10:46:09;101833.72;;;0.92;100.00
46464;BME280;32161;48.148;-1.554;2024-01-10T10:48:38;101832.88;;;0.82;100.00
46464;BME280;32161;48.148;-1.554;2024-01-10T10:51:08;101838.06;;;0.84;100.00
46464;BME280;32161;48.148;-1.554;2024-01-10T10:53:38;101839.63;;;0.96;100.00
46464;BME280;32161;48.148;-1.554;2024-01-10T10:56:07;101831.59;;;0.96;100.00
46464;BME280;32161;48.148;-1.554;2024-01-10T10:58:37;101830.19;;;0.92;100.00
46464;BME280;32161;48.148;-1.554;2024-01-10T11:01:08;101834.44;;;0.85;100.00
46464;BME280;32161;48.148;-1.554;2024-01-10T11:03:37;101827.22;;;0.95;100.00
46464;BME280;32161;48.148;-1.554;2024-01-10T11:06:06;101831.03;;;0.83;100.00
46464;BME280;32161;48.148;-1.554;2024-01-10T11:08:38;101826.38;;;0.94;100.00
46464;BME280;32161;48.148;-1.554;2024-01-10T11:11:18;101820.31;;;1.02;100.00
46464;BME280;32161;48.148;-1.554;2024-01-10T11:14:09;101823.16;;;0.81;100.00
46464;BME280;32161;48.148;-1.554;2024-01-10T11:17:21;101827.09;;;0.77;100.00
46464;BME280;32161;48.148;-1.554;2024-01-10T11:20:14;101817.66;;;0.83;100.00
46464;BME280;32161;48.148;-1.554;2024-01-10T11:23:32;101808.22;;;0.79;100.00
46464;BME280;32161;48.148;-1.554;2024-01-10T11:26:03;101800.06;;;0.90;100.00
46464;BME280;32161;48.148;-1.554;2024-01-10T11:28:31;101806.66;;;0.95;100.00
46464;BME280;32161;48.148;-1.554;2024-01-10T11:30:59;101808.63;;;1.03;100.00
46464;BME280;32161;48.148;-1.554;2024-01-10T11:33:33;101806.81;;;0.94;100.00
46464;BME280;32161;48.148;-1.554;2024-01-10T11:36:23;101805.00;;;0.85;100.00
46464;BME280;32161;48.148;-1.554;2024-01-10T11:38:58;101801.88;;;0.89;100.00
46464;BME280;32161;48.148;-1.554;2024-01-10T11:41:29;101800.19;;;0.98;100.00
46464;BME280;32161;48.148;-1.554;2024-01-10T11:44:48;101806.69;;;0.86;100.00
46464;BME280;32161;48.148;-1.554;2024-01-10T11:47:17;101799.78;;;0.93;100.00
46464;BME280;32161;48.148;-1.554;2024-01-10T11:49:58;101789.63;;;0.87;100.00
46464;BME280;32161;48.148;-1.554;2024-01-10T11:52:34;101793.00;;;0.89;100.00
46464;BME280;32161;48.148;-1.554;2024-01-10T11:55:01;101796.78;;;0.96;100.00
46464;BME280;32161;48.148;-1.554;2024-01-10T11:57:31;101792.53;;;1.22;100.00
46464;BME280;32161;48.148;-1.554;2024-01-10T11:59:59;101790.31;;;1.08;100.00
46464;BME280;32161;48.148;-1.554;2024-01-10T12:02:28;101799.03;;;1.20;100.00
46464;BME280;32161;48.148;-1.554;2024-01-10T12:04:58;101788.63;;;1.07;100.00
46464;BME280;32161;48.148;-1.554;2024-01-10T12:07:25;101792.44;;;1.05;100.00
46464;BME280;32161;48.148;-1.554;2024-01-10T12:09:53;101781.81;;;1.22;100.00
46464;BME280;32161;48.148;-1.554;2024-01-10T12:12:21;101777.50;;;1.12;100.00
46464;BME280;32161;48.148;-1.554;2024-01-10T12:14:51;101777.91;;;1.07;100.00
46464;BME280;32161;48.148;-1.554;2024-01-10T12:17:18;101770.19;;;1.04;100.00
46464;BME280;32161;48.148;-1.554;2024-01-10T12:19:46;101770.03;;;1.06;100.00
46464;BME280;32161;48.148;-1.554;2024-01-10T12:22:16;101759.88;;;1.09;100.00
46464;BME280;32161;48.148;-1.554;2024-01-10T12:24:47;101764.91;;;1.22;100.00
46464;BME280;32161;48.148;-1.554;2024-01-10T12:27:17;101766.47;;;1.25;100.00
46464;BME280;32161;48.148;-1.554;2024-01-10T12:29:48;101769.31;;;1.23;100.00
46464;BME280;32161;48.148;-1.554;2024-01-10T12:32:17;101761.69;;;1.28;100.00
46464;BME280;32161;48.148;-1.554;2024-01-10T12:34:45;101770.50;;;1.38;100.00
46464;BME280;32161;48.148;-1.554;2024-01-10T12:37:14;101769.13;;;1.34;100.00
46464;BME280;32161;48.148;-1.554;2024-01-10T12:39:43;101762.34;;;1.40;100.00
46464;BME280;32161;48.148;-1.554;2024-01-10T12:42:10;101760.91;;;1.45;100.00
46464;BME280;32161;48.148;-1.554;2024-01-10T12:44:42;101767.88;;;1.29;100.00
46464;BME280;32161;48.148;-1.554;2024-01-10T12:47:18;101756.53;;;1.54;100.00
46464;BME280;32161;48.148;-1.554;2024-01-10T12:49:47;101760.06;;;1.45;100.00